Worthing, Texas
Current Conditions -  °F | °C
As of 8:15 AM on Sunday 23 Nov 2014 (Local Time) from K66R Reporting Station
Clear Clear  
Wind Chill: 59°   Ceiling: Unl
Heat Index: 59°   Visibility: 10mi
Dew Point: 58°   Wind: 6mph
Humidity: 96%   Direction: 250°WSW
Pressure: 29.68"   Gusts: NA
Location:  29.3984°N, 96.8256°W
Report Text: K66R 231415Z AUTO 25005KT 10SM CLR 15/14 A2968 RMK AO2 T01500143
Loading
Personal Weather Stations






























Interactive Weather Map New forecast layout! Learn more

10-Day Weather Forecast

Advertisements
Track Severe Weather on mobile